Kingston, ID

11:11 PM PDT on May 22, 2015 (GMT -0700)
ITD | | Change Station
CLOSE
Current Station
Personal Weather Station
Location: Kingston, ID
Elevation: 2174 ft
Nearby Weather Stations

Elev 2174 ft 47.55 °N, 116.33 °W | Updated 41 minutes ago

Clear
Clear
60 °F
Feels Like 60 °F
N
2
Wind Variable Wind from SSW
Gusts 3.0 mph

Today
High -- | Low -- °F
--% Chance of Precip.
Yesterday
High -- | Low -- °F
Precip. -- in
5:00 AM 8:24 PM
Waxing Crescent, 27% visible
Pressure 29.88 in
Visibility 10.0 miles
Clouds Scattered Clouds 12000 ft
Dew Point 50 °F
Humidity 69%
Rainfall in
Snow Depth Not available.
UV 0 out of 12
Pollen 8.50 out of 12
Air Quality Not available.
Flu Activity Sporadic
METAR KCOE 230555Z AUTO 16006KT 10SM SCT120 16/07 A2988 RMK AO1 10240 20150 52027

More Conditions Fewer Conditions

Pressure 29.88 in
Visibility 10.0 miles
Clouds Scattered Clouds 12000 ft
Dew Point 50 °F
Humidity 69%
Rainfall in
Snow Depth Not available.
UV 0 out of 12
Pollen 8.50 out of 12
Air Quality Not available.
Flu Activity Sporadic
METAR KCOE 230555Z AUTO 16006KT 10SM SCT120 16/07 A2988 RMK AO1 10240 20150 52027

More Conditions Fewer Conditions

10-Day Weather Forecast

Almanac

Astronomy

May. 22, 2015 Rise Set
Actual Time
Civil Twilight
Nautical Twilight
Astronomical Twilight
Moon
Length of Visible Light
Length of Day
Tomorrow will be .
, % of the Moon is Illuminated

Today's Extremes

State Highs State Lows

Community

WunderPhotos

Upload Photos

1,823,393 photos uploaded!

WunderBlogs® & News

Nearby

Air Quality

  Air Quality AQ Index Pollutant
Not available.

Snow Depth

Station Depth Elevation

Earthquake Activity

City Distance Mag. Time & Date
Minimum magnitude displayed is 2.5.

Coastal Water Temperatures

Place Temperature

Stations

Nearby Weather Stations

Station Location Temp. Windchill Dew Point Humidity Wind Precip. Elev Updated Type